Terminal Aerodrome Forecast
Issued by NWS

Home | Current Version | Previous Version | Text Only | Print | Product List | Glossary Off
Versions: 1 2 3 4 5 6 7 8 9 10 11 12 13 14 15 16 17 18 19 20 21

981
FTUS43 KFGF 191604 AAA
TAFBJI
TAF AMD
KBJI 191604Z 1916/2012 31010G23KT P6SM SCT045
     FM200000 VRB03KT P6SM VCSH BKN050
     FM200800 30004KT P6SM BKN070=

USA.gov is the U.S. government's official web portal to all federal, state and local government web resources and services.